createdAt,value
2019-06-08T00:00:18.523Z,0.70
2019-06-08T00:02:46.820Z,0.77
2019-06-08T00:05:16.801Z,0.80
2019-06-08T00:07:45.235Z,0.77
2019-06-08T00:10:14.682Z,1.17
2019-06-08T00:12:44.073Z,1.00
2019-06-08T00:15:12.062Z,0.67
2019-06-08T00:17:40.243Z,0.67
2019-06-08T00:20:08.737Z,0.83
2019-06-08T00:22:37.764Z,1.00
2019-06-08T00:25:08.158Z,0.80
2019-06-08T00:27:35.651Z,0.80
2019-06-08T00:30:02.953Z,0.70
2019-06-08T00:32:31.693Z,0.70
2019-06-08T00:34:58.927Z,0.70
2019-06-08T00:37:27.660Z,0.90
2019-06-08T00:39:56.682Z,0.63
2019-06-08T00:42:25.511Z,0.77
2019-06-08T00:44:53.087Z,0.60
2019-06-08T00:47:22.597Z,0.90
2019-06-08T00:49:50.004Z,0.80
2019-06-08T00:52:18.916Z,0.70
2019-06-08T00:54:46.188Z,0.73
2019-06-08T00:57:14.331Z,0.70
2019-06-08T00:59:42.516Z,0.70
2019-06-08T01:02:13.923Z,0.70
2019-06-08T01:04:42.253Z,0.70
2019-06-08T01:07:10.407Z,0.73
2019-06-08T01:09:38.587Z,0.80
2019-06-08T01:12:06.750Z,0.80
2019-06-08T01:14:34.915Z,1.57
2019-06-08T01:17:03.097Z,0.77
2019-06-08T01:19:31.291Z,1.10
2019-06-08T01:21:59.712Z,0.80
2019-06-08T01:24:28.037Z,0.93
2019-06-08T01:26:56.368Z,0.77
2019-06-08T01:29:26.220Z,1.17
2019-06-08T01:31:54.350Z,1.10
2019-06-08T01:34:22.823Z,1.00
2019-06-08T01:36:51.659Z,0.93
2019-06-08T01:39:21.113Z,0.70
2019-06-08T01:41:49.636Z,0.80
2019-06-08T01:44:18.323Z,0.73
2019-06-08T01:46:46.956Z,0.90
2019-06-08T01:49:15.268Z,1.33
2019-06-08T01:51:44.115Z,1.00
2019-06-08T01:54:11.611Z,1.00
2019-06-08T01:56:39.823Z,0.90
2019-06-08T01:59:08.260Z,0.80
2019-06-08T02:01:36.719Z,1.00
2019-06-08T02:04:05.452Z,0.90
2019-06-08T02:06:35.653Z,0.60
2019-06-08T02:09:06.428Z,0.70
2019-06-08T02:11:35.029Z,1.00
2019-06-08T02:14:04.100Z,1.10
2019-06-08T02:16:33.367Z,0.87
2019-06-08T02:19:00.883Z,1.20
2019-06-08T02:21:28.875Z,0.97
2019-06-08T02:23:57.321Z,1.13
2019-06-08T02:26:27.556Z,1.10
2019-06-08T02:28:55.805Z,0.93
2019-06-08T02:31:24.000Z,1.00
2019-06-08T02:33:52.323Z,1.10
2019-06-08T02:36:20.564Z,1.10
2019-06-08T02:38:48.789Z,1.07
2019-06-08T02:41:16.368Z,1.47
2019-06-08T02:43:44.591Z,1.10
2019-06-08T02:46:12.805Z,0.80
2019-06-08T02:49:02.455Z,1.00
2019-06-08T02:51:10.580Z,1.00
2019-06-08T02:53:39.227Z,0.77
2019-06-08T02:56:12.061Z,1.10
2019-06-08T02:58:41.800Z,0.80
2019-06-08T03:01:10.140Z,1.00
2019-06-08T03:03:40.261Z,1.63
2019-06-08T03:06:08.776Z,1.20
2019-06-08T03:08:39.307Z,0.90
2019-06-08T03:11:07.381Z,0.80
2019-06-08T03:13:37.449Z,1.40
2019-06-08T03:16:05.905Z,0.90
2019-06-08T03:18:35.699Z,1.00
2019-06-08T03:21:03.133Z,1.07
2019-06-08T03:23:31.889Z,1.00
2019-06-08T03:26:00.663Z,1.47
2019-06-08T03:28:29.065Z,1.07
2019-06-08T03:30:58.135Z,0.93
2019-06-08T03:33:26.615Z,0.93
2019-06-08T03:35:57.843Z,1.27
2019-06-08T03:38:23.284Z,1.40
2019-06-08T03:40:51.610Z,1.07
2019-06-08T03:43:20.201Z,1.30
2019-06-08T03:45:47.782Z,0.90
2019-06-08T03:48:16.004Z,1.60
2019-06-08T03:50:44.471Z,1.10
2019-06-08T03:53:13.700Z,1.73
2019-06-08T03:55:43.011Z,1.00
2019-06-08T03:58:11.984Z,1.00
2019-06-08T04:00:40.476Z,1.20
2019-06-08T04:03:08.768Z,1.20
2019-06-08T04:05:37.863Z,1.20
2019-06-08T04:08:07.480Z,1.33
2019-06-08T04:10:37.528Z,1.40
2019-06-08T04:13:06.273Z,1.50
2019-06-08T04:15:34.906Z,1.57
2019-06-08T04:18:03.465Z,1.30
2019-06-08T04:20:32.244Z,1.30
2019-06-08T04:23:00.894Z,1.30
2019-06-08T04:25:28.211Z,1.13
2019-06-08T04:27:56.395Z,1.30
2019-06-08T04:30:24.692Z,1.20
2019-06-08T04:32:52.879Z,1.60
2019-06-08T04:35:21.213Z,1.40
2019-06-08T04:37:50.494Z,1.00
2019-06-08T04:40:18.575Z,1.30
2019-06-08T04:42:46.688Z,1.40
2019-06-08T04:45:15.364Z,1.17
2019-06-08T04:47:45.369Z,1.70
2019-06-08T04:50:22.439Z,1.30
2019-06-08T04:52:44.934Z,1.10
2019-06-08T04:55:13.441Z,1.60
2019-06-08T04:57:43.323Z,1.10
2019-06-08T05:00:13.000Z,1.20
2019-06-08T05:02:43.963Z,1.33
2019-06-08T05:05:12.256Z,1.43
2019-06-08T05:07:43.581Z,1.40
2019-06-08T05:10:12.365Z,1.37
2019-06-08T05:12:41.253Z,1.40
2019-06-08T05:15:10.493Z,1.40
2019-06-08T05:17:39.380Z,1.50
2019-06-08T05:20:08.018Z,1.40
2019-06-08T05:22:36.340Z,1.43
2019-06-08T05:25:05.055Z,1.40
2019-06-08T05:27:33.481Z,1.20
2019-06-08T05:30:08.364Z,1.70
2019-06-08T05:32:32.384Z,1.27
2019-06-08T05:35:01.216Z,1.23
2019-06-08T05:37:29.713Z,1.50
2019-06-08T05:39:58.263Z,1.40
2019-06-08T05:42:27.338Z,1.73
2019-06-08T05:44:55.223Z,1.50
2019-06-08T05:47:22.595Z,1.50
2019-06-08T05:49:51.328Z,1.53
2019-06-08T05:52:20.038Z,1.93
2019-06-08T05:54:48.024Z,1.80
2019-06-08T05:57:15.933Z,1.50
2019-06-08T05:59:44.605Z,1.47
2019-06-08T06:02:13.008Z,1.13
2019-06-08T06:04:42.391Z,1.33
2019-06-08T06:07:09.711Z,1.37
2019-06-08T06:09:37.908Z,1.50
2019-06-08T06:12:06.139Z,1.30
2019-06-08T06:14:36.878Z,1.63
2019-06-08T06:17:04.738Z,1.57
2019-06-08T06:19:33.043Z,1.50
2019-06-08T06:22:02.267Z,1.27
2019-06-08T06:24:29.437Z,1.40
2019-06-08T06:26:57.526Z,1.60
2019-06-08T06:29:26.777Z,1.90
2019-06-08T06:31:54.078Z,1.70
2019-06-08T06:34:21.880Z,1.20
2019-06-08T06:36:49.907Z,1.50
2019-06-08T06:39:18.715Z,1.27
2019-06-08T06:41:47.898Z,1.60
2019-06-08T06:44:15.146Z,1.93
2019-06-08T06:46:43.985Z,1.73
2019-06-08T06:49:12.302Z,1.40
2019-06-08T06:51:40.868Z,2.00
2019-06-08T06:54:09.319Z,1.33
2019-06-08T06:56:36.859Z,1.47
2019-06-08T06:59:05.056Z,1.30
2019-06-08T07:01:33.336Z,1.60
2019-06-08T07:04:01.776Z,1.40
2019-06-08T07:06:30.080Z,1.43
2019-06-08T07:08:58.286Z,1.70
2019-06-08T07:11:25.478Z,1.67
2019-06-08T07:13:55.023Z,2.00
2019-06-08T07:16:22.400Z,1.30
2019-06-08T07:18:50.451Z,1.53
2019-06-08T07:21:18.558Z,1.60
2019-06-08T07:23:49.521Z,1.30
2019-06-08T07:26:17.026Z,1.83
2019-06-08T07:28:44.339Z,1.67
2019-06-08T07:31:11.606Z,1.90
2019-06-08T07:33:39.857Z,1.63
2019-06-08T07:36:08.055Z,2.07
2019-06-08T07:38:36.241Z,1.80
2019-06-08T07:41:04.469Z,1.37
2019-06-08T07:43:32.561Z,1.40
2019-06-08T07:46:00.880Z,1.77
2019-06-08T07:48:28.071Z,1.67
2019-06-08T07:50:56.526Z,1.50
2019-06-08T07:53:25.095Z,1.57
2019-06-08T07:55:53.561Z,1.57
2019-06-08T07:58:21.897Z,1.80
2019-06-08T08:00:54.351Z,2.07
2019-06-08T08:03:21.836Z,1.60
2019-06-08T08:05:50.307Z,1.57
2019-06-08T08:08:17.629Z,2.30
2019-06-08T08:10:44.810Z,1.60
2019-06-08T08:13:13.124Z,1.90
2019-06-08T08:15:41.314Z,1.50
2019-06-08T08:18:09.413Z,1.77
2019-06-08T08:20:37.611Z,1.60
2019-06-08T08:23:08.983Z,1.60
2019-06-08T08:25:37.875Z,1.70
2019-06-08T08:28:08.069Z,2.20
2019-06-08T08:30:37.592Z,1.87
2019-06-08T08:33:04.340Z,1.63
2019-06-08T08:35:32.614Z,1.57
2019-06-08T08:38:03.892Z,1.60
2019-06-08T08:40:30.735Z,1.50
2019-06-08T08:43:01.486Z,1.73
2019-06-08T08:45:29.086Z,1.97
2019-06-08T08:48:14.491Z,1.47
2019-06-08T08:50:28.306Z,1.50
2019-06-08T08:52:58.978Z,1.50
2019-06-08T08:55:27.980Z,1.57
2019-06-08T08:57:57.080Z,1.80
2019-06-08T09:00:28.129Z,1.50
2019-06-08T09:03:16.174Z,1.90
2019-06-08T09:05:28.116Z,1.40
2019-06-08T09:07:58.781Z,1.87
2019-06-08T09:10:28.068Z,1.50
2019-06-08T09:12:58.885Z,1.80
2019-06-08T09:15:31.201Z,1.47
2019-06-08T09:17:59.807Z,2.00
2019-06-08T09:20:28.580Z,1.30
2019-06-08T09:23:06.451Z,1.63
2019-06-08T09:25:28.038Z,1.70
2019-06-08T09:27:59.089Z,1.60
2019-06-08T09:30:27.529Z,1.57
2019-06-08T09:32:59.091Z,1.57
2019-06-08T09:35:27.870Z,1.33
2019-06-08T09:37:59.429Z,1.50
2019-06-08T09:40:28.843Z,1.17
2019-06-08T09:43:05.375Z,1.60
2019-06-08T09:45:28.802Z,1.40
2019-06-08T09:47:55.540Z,1.37
2019-06-08T09:50:23.764Z,1.30
2019-06-08T09:53:06.461Z,1.60
2019-06-08T09:55:22.028Z,1.47
2019-06-08T09:57:50.130Z,1.33
2019-06-08T10:00:25.268Z,1.80
2019-06-08T10:02:48.783Z,1.50
2019-06-08T10:05:18.482Z,1.40
2019-06-08T10:07:48.687Z,1.60
2019-06-08T10:10:18.179Z,1.43
2019-06-08T10:12:48.401Z,1.80
2019-06-08T10:15:17.918Z,1.53
2019-06-08T10:17:47.624Z,1.57
2019-06-08T10:20:18.385Z,1.60
2019-06-08T10:22:50.005Z,1.70
2019-06-08T10:25:16.362Z,1.40
2019-06-08T10:27:44.680Z,1.63
2019-06-08T10:30:14.715Z,1.70
2019-06-08T10:32:42.029Z,1.77
2019-06-08T10:35:10.859Z,1.93
2019-06-08T10:37:39.035Z,1.47
2019-06-08T10:40:08.122Z,1.97
2019-06-08T10:42:39.907Z,2.00
2019-06-08T10:45:10.437Z,1.93
2019-06-08T10:47:37.918Z,2.03
2019-06-08T10:50:11.179Z,1.53
2019-06-08T10:52:38.949Z,1.80
2019-06-08T10:55:10.374Z,1.50
2019-06-08T10:57:37.534Z,2.00
2019-06-08T11:00:15.653Z,1.77
2019-06-08T11:02:37.569Z,1.77
2019-06-08T11:05:12.175Z,1.90
2019-06-08T11:07:38.070Z,1.43
2019-06-08T11:10:10.200Z,1.70
2019-06-08T11:12:37.693Z,1.53
2019-06-08T11:15:09.287Z,2.00
2019-06-08T11:17:37.847Z,2.00
2019-06-08T11:20:11.162Z,1.60
2019-06-08T11:22:37.426Z,2.00
2019-06-08T11:25:08.288Z,1.40
2019-06-08T11:27:38.614Z,1.87
2019-06-08T11:30:11.684Z,1.60
2019-06-08T11:32:34.688Z,1.73
2019-06-08T11:35:04.190Z,1.37
2019-06-08T11:37:32.766Z,1.80
2019-06-08T11:40:02.146Z,1.20
2019-06-08T11:42:30.789Z,1.60
2019-06-08T11:45:00.291Z,2.00
2019-06-08T11:47:31.032Z,1.23
2019-06-08T11:50:00.418Z,2.10
2019-06-08T11:52:28.589Z,1.50
2019-06-08T11:54:57.337Z,1.23
2019-06-08T11:57:28.350Z,1.67
2019-06-08T11:59:58.468Z,2.00
2019-06-08T12:02:27.218Z,1.73
2019-06-08T12:04:57.287Z,1.63
2019-06-08T12:07:25.603Z,1.97
2019-06-08T12:09:54.460Z,1.73
2019-06-08T12:12:21.807Z,1.80
2019-06-08T12:14:50.291Z,1.60
2019-06-08T12:17:22.191Z,1.57
2019-06-08T12:19:49.315Z,1.80
2019-06-08T12:22:17.953Z,1.60
2019-06-08T12:24:46.498Z,2.17
2019-06-08T12:27:29.584Z,1.73
2019-06-08T12:29:45.363Z,1.73
2019-06-08T12:32:14.329Z,1.53
2019-06-08T12:34:44.085Z,1.60
2019-06-08T12:37:17.965Z,1.60
2019-06-08T12:39:44.068Z,1.60
2019-06-08T12:42:15.668Z,1.33
2019-06-08T12:44:43.644Z,1.50
2019-06-08T12:47:15.027Z,1.73
2019-06-08T12:49:41.542Z,1.40
2019-06-08T12:52:12.408Z,1.60
2019-06-08T12:54:40.343Z,1.83
2019-06-08T12:57:13.030Z,1.70
2019-06-08T12:59:39.578Z,1.80
2019-06-08T13:02:13.992Z,1.60
2019-06-08T13:04:38.839Z,1.40
2019-06-08T13:07:09.750Z,1.50
2019-06-08T13:09:38.405Z,1.50
2019-06-08T13:12:08.029Z,1.53
2019-06-08T13:14:38.485Z,1.30
2019-06-08T13:17:08.745Z,1.63
2019-06-08T13:19:38.581Z,1.67
2019-06-08T13:22:09.029Z,1.40
2019-06-08T13:24:37.659Z,1.57
2019-06-08T13:27:06.444Z,1.40
2019-06-08T13:29:34.908Z,1.60
2019-06-08T13:32:03.395Z,1.60
2019-06-08T13:34:32.132Z,1.50
2019-06-08T13:36:59.910Z,1.60
2019-06-08T13:39:28.884Z,1.50
2019-06-08T13:41:57.159Z,1.30
2019-06-08T13:44:27.803Z,1.53
2019-06-08T13:46:57.632Z,1.60
2019-06-08T13:49:29.597Z,1.30
2019-06-08T13:51:53.772Z,1.87
2019-06-08T13:54:22.749Z,1.97
2019-06-08T13:56:50.816Z,1.90
2019-06-08T13:59:24.238Z,1.50
2019-06-08T14:01:49.623Z,2.03
2019-06-08T14:04:19.450Z,2.07
2019-06-08T14:06:50.561Z,1.43
2019-06-08T14:09:20.697Z,1.40
2019-06-08T14:11:48.439Z,1.80
2019-06-08T14:14:19.587Z,1.37
2019-06-08T14:16:50.387Z,1.70
2019-06-08T14:19:19.356Z,1.67
2019-06-08T14:21:47.701Z,1.70
2019-06-08T14:24:18.244Z,1.53
2019-06-08T14:26:48.511Z,1.70
2019-06-08T14:29:19.707Z,2.37
2019-06-08T14:31:47.215Z,1.70
2019-06-08T14:34:17.786Z,1.80
2019-06-08T14:36:45.866Z,1.63
2019-06-08T14:39:14.483Z,1.57
2019-06-08T14:41:43.184Z,1.67
2019-06-08T14:44:11.747Z,1.80
2019-06-08T14:46:41.448Z,1.90
2019-06-08T14:49:10.419Z,1.47
2019-06-08T14:51:51.644Z,2.10
2019-06-08T14:54:24.367Z,1.80
2019-06-08T14:56:50.308Z,1.40
2019-06-08T14:59:20.248Z,1.50
2019-06-08T15:01:48.748Z,1.20
2019-06-08T15:04:20.271Z,1.40
2019-06-08T15:06:48.782Z,1.43
2019-06-08T15:09:17.826Z,1.80
2019-06-08T15:11:48.058Z,2.00
2019-06-08T15:14:16.211Z,1.63
2019-06-08T15:16:44.398Z,1.60
2019-06-08T15:19:12.578Z,1.60
2019-06-08T15:21:40.761Z,1.80
2019-06-08T15:24:09.045Z,1.70
2019-06-08T15:26:44.925Z,1.93
2019-06-08T15:29:07.979Z,2.30
2019-06-08T15:31:36.344Z,1.47
2019-06-08T15:34:04.536Z,1.73
2019-06-08T15:36:32.858Z,1.60
2019-06-08T15:39:01.375Z,1.73
2019-06-08T15:41:31.292Z,2.30
2019-06-08T15:44:00.435Z,2.17
2019-06-08T15:46:30.403Z,1.50
2019-06-08T15:48:57.640Z,1.80
2019-06-08T15:51:24.811Z,1.43
2019-06-08T15:53:53.276Z,1.60
2019-06-08T15:56:37.494Z,1.37
2019-06-08T15:58:51.743Z,1.20
2019-06-08T16:01:20.158Z,1.33
2019-06-08T16:03:50.325Z,1.50
2019-06-08T16:06:18.732Z,1.10
2019-06-08T16:08:47.056Z,1.60
2019-06-08T16:11:15.626Z,1.63
2019-06-08T16:13:44.279Z,1.20
2019-06-08T16:16:12.549Z,1.67
2019-06-08T16:18:40.930Z,1.87
2019-06-08T16:21:09.180Z,1.73
2019-06-08T16:23:38.422Z,1.67
2019-06-08T16:26:06.644Z,2.07
2019-06-08T16:28:36.213Z,2.37
2019-06-08T16:31:05.570Z,2.00
2019-06-08T16:33:33.422Z,2.70
2019-06-08T16:36:02.048Z,2.40
2019-06-08T16:38:30.426Z,2.87
2019-06-08T16:40:58.888Z,2.90
2019-06-08T16:43:27.094Z,3.43
2019-06-08T16:45:55.303Z,2.03
2019-06-08T16:48:23.534Z,2.10
2019-06-08T16:50:51.699Z,2.00
2019-06-08T16:53:19.975Z,2.10
2019-06-08T16:55:48.274Z,1.80
2019-06-08T16:58:16.501Z,1.90
2019-06-08T17:00:44.588Z,2.17
2019-06-08T17:03:12.944Z,2.30
2019-06-08T17:05:40.159Z,2.20
2019-06-08T17:08:08.754Z,2.20
2019-06-08T17:10:37.209Z,2.57
2019-06-08T17:13:05.475Z,1.90
2019-06-08T17:15:34.179Z,2.00
2019-06-08T17:18:02.741Z,1.87
2019-06-08T17:20:32.051Z,1.73
2019-06-08T17:23:00.518Z,1.83
2019-06-08T17:25:30.271Z,1.70
2019-06-08T17:27:58.031Z,2.00
2019-06-08T17:30:25.548Z,1.90
2019-06-08T17:32:53.939Z,2.10
2019-06-08T17:35:22.449Z,1.90
2019-06-08T17:37:49.911Z,2.30
2019-06-08T17:40:18.426Z,1.90
2019-06-08T17:42:46.812Z,1.90
2019-06-08T17:45:15.133Z,1.80
2019-06-08T17:47:43.449Z,1.80
2019-06-08T17:50:11.948Z,1.80
2019-06-08T17:52:41.033Z,1.60
2019-06-08T17:55:10.222Z,1.90
2019-06-08T17:57:48.506Z,1.93
2019-06-08T18:00:11.003Z,2.20
2019-06-08T18:02:42.070Z,1.97
2019-06-08T18:05:09.027Z,2.03
2019-06-08T18:07:39.994Z,1.80
2019-06-08T18:10:07.627Z,2.27
2019-06-08T18:12:41.138Z,2.20
2019-06-08T18:15:09.121Z,2.13
2019-06-08T18:17:41.615Z,3.20
2019-06-08T18:20:11.462Z,2.40
2019-06-08T18:22:44.412Z,2.23
2019-06-08T18:25:14.099Z,1.97
2019-06-08T18:27:46.790Z,1.60
2019-06-08T18:30:13.020Z,2.33
2019-06-08T18:32:46.329Z,2.63
2019-06-08T18:35:18.045Z,3.07
2019-06-08T18:37:46.206Z,2.07
2019-06-08T18:40:17.723Z,3.03
2019-06-08T18:42:48.796Z,2.50
2019-06-08T18:45:18.163Z,2.03
2019-06-08T18:47:48.382Z,2.97
2019-06-08T18:50:17.313Z,2.70
2019-06-08T18:52:47.286Z,4.50
2019-06-08T18:55:18.238Z,3.80
2019-06-08T18:57:49.028Z,2.40
2019-06-08T19:00:23.984Z,2.30
2019-06-08T19:02:54.457Z,2.00
2019-06-08T19:05:21.311Z,1.90
2019-06-08T19:07:51.667Z,2.20
2019-06-08T19:10:29.932Z,1.90
2019-06-08T19:12:58.663Z,2.03
2019-06-08T19:15:31.595Z,1.93
2019-06-08T19:17:59.771Z,1.70
2019-06-08T19:20:28.409Z,2.17
2019-06-08T19:22:57.990Z,1.80
2019-06-08T19:25:27.177Z,2.43
2019-06-08T19:27:57.779Z,1.93
2019-06-08T19:30:28.137Z,2.20
2019-06-08T19:32:57.875Z,1.87
2019-06-08T19:35:27.388Z,2.33
2019-06-08T19:37:58.166Z,1.97
2019-06-08T19:40:27.185Z,1.70
2019-06-08T19:43:00.991Z,1.97
2019-06-08T19:45:28.835Z,1.90
2019-06-08T19:47:57.724Z,2.47
2019-06-08T19:50:28.675Z,2.10
2019-06-08T19:52:58.098Z,2.03
2019-06-08T19:55:30.916Z,1.97
2019-06-08T19:57:59.474Z,2.07
2019-06-08T20:00:28.414Z,1.87
2019-06-08T20:02:58.292Z,2.00
2019-06-08T20:05:33.287Z,1.77
2019-06-08T20:08:01.022Z,2.10
2019-06-08T20:10:28.619Z,2.10
2019-06-08T20:12:57.522Z,1.80
2019-06-08T20:15:26.006Z,2.00
2019-06-08T20:17:57.970Z,1.83
2019-06-08T20:20:27.891Z,1.40
2019-06-08T20:22:58.348Z,1.67
2019-06-08T20:25:27.785Z,1.30
2019-06-08T20:27:55.149Z,1.50
2019-06-08T20:30:24.338Z,1.50
2019-06-08T20:32:53.161Z,1.27
2019-06-08T20:35:21.530Z,1.70
2019-06-08T20:37:50.006Z,1.50
2019-06-08T20:40:18.555Z,1.60
2019-06-08T20:42:53.310Z,1.53
2019-06-08T20:45:21.096Z,1.50
2019-06-08T20:47:51.015Z,2.13
2019-06-08T20:50:18.452Z,1.70
2019-06-08T20:52:47.289Z,1.20
2019-06-08T20:55:17.622Z,1.43
2019-06-08T20:57:49.017Z,1.63
2019-06-08T21:00:16.824Z,2.00
2019-06-08T21:02:46.384Z,1.90
2019-06-08T21:05:18.375Z,1.63
2019-06-08T21:07:49.505Z,1.70
2019-06-08T21:10:17.492Z,1.80
2019-06-08T21:12:49.567Z,1.70
2019-06-08T21:15:22.844Z,1.60
2019-06-08T21:17:52.370Z,1.80
2019-06-08T21:20:21.134Z,2.30
2019-06-08T21:22:52.356Z,1.80
2019-06-08T21:25:20.469Z,1.97
2019-06-08T21:27:51.154Z,1.90
2019-06-08T21:30:24.337Z,2.20
2019-06-08T21:32:53.487Z,2.67
2019-06-08T21:35:21.738Z,2.37
2019-06-08T21:37:53.409Z,2.00
2019-06-08T21:40:20.877Z,2.67
2019-06-08T21:42:52.140Z,2.40
2019-06-08T21:45:19.215Z,2.23
2019-06-08T21:47:50.121Z,2.30
2019-06-08T21:50:18.623Z,1.90
2019-06-08T21:52:48.938Z,2.20
2019-06-08T21:55:17.777Z,2.10
2019-06-08T21:57:49.529Z,1.93
2019-06-08T22:00:38.496Z,1.83
2019-06-08T22:02:53.679Z,1.90
2019-06-08T22:05:20.906Z,2.00
2019-06-08T22:07:50.074Z,2.27
2019-06-08T22:10:18.533Z,2.20
2019-06-08T22:12:52.387Z,2.53
2019-06-08T22:15:20.603Z,2.57
2019-06-08T22:17:51.999Z,2.53
2019-06-08T22:20:19.995Z,2.23
2019-06-08T22:22:47.597Z,2.47
2019-06-08T22:25:18.006Z,2.53
2019-06-08T22:27:47.187Z,2.10
2019-06-08T22:30:32.324Z,2.17
2019-06-08T22:32:47.559Z,2.47
2019-06-08T22:35:18.487Z,2.63
2019-06-08T22:37:48.039Z,2.47
2019-06-08T22:40:17.541Z,2.10
2019-06-08T22:42:45.034Z,2.47
2019-06-08T22:45:12.820Z,2.47
2019-06-08T22:47:40.674Z,2.40
2019-06-08T22:50:18.397Z,2.60
2019-06-08T22:52:47.725Z,2.20
2019-06-08T22:55:18.354Z,2.40
2019-06-08T22:57:44.916Z,2.30
2019-06-08T23:00:19.850Z,2.33
2019-06-08T23:02:43.774Z,2.03
2019-06-08T23:05:10.955Z,2.63
2019-06-08T23:07:38.264Z,2.00
2019-06-08T23:10:08.936Z,2.23
2019-06-08T23:12:41.675Z,2.37
2019-06-08T23:15:10.873Z,1.97
2019-06-08T23:17:39.128Z,2.50
2019-06-08T23:20:08.614Z,2.30
2019-06-08T23:22:38.628Z,2.20
2019-06-08T23:25:09.535Z,2.50
2019-06-08T23:27:38.449Z,2.10
2019-06-08T23:30:10.116Z,2.00
2019-06-08T23:32:38.762Z,2.27
2019-06-08T23:35:11.052Z,2.27
2019-06-08T23:37:38.273Z,2.30
2019-06-08T23:40:07.725Z,2.47
2019-06-08T23:42:38.390Z,2.43
2019-06-08T23:45:12.762Z,2.70
2019-06-08T23:47:40.451Z,2.07
2019-06-08T23:50:10.929Z,2.30
2019-06-08T23:52:39.440Z,2.20
2019-06-08T23:55:11.713Z,1.70
2019-06-08T23:57:40.056Z,2.50
